sensor_id;sensor_type;location;lat;lon;timestamp;temperature;humidity
64961;SHT31;51487;52.266;10.542;2023-02-07T00:01:20;0.35;85.58
64961;SHT31;51487;52.266;10.542;2023-02-07T00:03:47;0.23;86.05
64961;SHT31;51487;52.266;10.542;2023-02-07T00:06:20;0.22;86.04
64961;SHT31;51487;52.266;10.542;2023-02-07T00:08:47;0.25;85.73
64961;SHT31;51487;52.266;10.542;2023-02-07T00:11:16;0.25;85.83
64961;SHT31;51487;52.266;10.542;2023-02-07T00:13:45;0.26;85.74
64961;SHT31;51487;52.266;10.542;2023-02-07T00:16:10;0.26;85.40
64961;SHT31;51487;52.266;10.542;2023-02-07T00:18:36;0.30;85.49
64961;SHT31;51487;52.266;10.542;2023-02-07T00:21:11;0.32;85.56
64961;SHT31;51487;52.266;10.542;2023-02-07T00:23:38;0.42;85.48
64961;SHT31;51487;52.266;10.542;2023-02-07T00:26:06;0.42;85.35
64961;SHT31;51487;52.266;10.542;2023-02-07T00:28:32;0.64;84.75
64961;SHT31;51487;52.266;10.542;2023-02-07T00:31:22;0.73;84.25
64961;SHT31;51487;52.266;10.542;2023-02-07T00:33:50;0.74;84.13
64961;SHT31;51487;52.266;10.542;2023-02-07T00:36:21;0.83;83.80
64961;SHT31;51487;52.266;10.542;2023-02-07T00:38:48;0.92;83.68
64961;SHT31;51487;52.266;10.542;2023-02-07T00:41:16;0.80;83.90
64961;SHT31;51487;52.266;10.542;2023-02-07T00:43:45;0.78;83.83
64961;SHT31;51487;52.266;10.542;2023-02-07T00:46:11;0.83;84.10
64961;SHT31;51487;52.266;10.542;2023-02-07T00:48:37;1.06;83.32
64961;SHT31;51487;52.266;10.542;2023-02-07T00:51:06;0.96;83.48
64961;SHT31;51487;52.266;10.542;2023-02-07T00:53:32;0.81;84.14
64961;SHT31;51487;52.266;10.542;2023-02-07T00:55:58;0.66;84.42
64961;SHT31;51487;52.266;10.542;2023-02-07T00:58:24;0.58;84.80
64961;SHT31;51487;52.266;10.542;2023-02-07T01:00:50;0.40;85.02
64961;SHT31;51487;52.266;10.542;2023-02-07T01:03:17;0.32;85.37
64961;SHT31;51487;52.266;10.542;2023-02-07T01:05:43;0.32;85.04
64961;SHT31;51487;52.266;10.542;2023-02-07T01:08:08;0.26;85.61
64961;SHT31;51487;52.266;10.542;2023-02-07T01:10:35;0.16;85.44
64961;SHT31;51487;52.266;10.542;2023-02-07T01:13:02;0.15;85.18
64961;SHT31;51487;52.266;10.542;2023-02-07T01:15:28;-0.04;85.89
64961;SHT31;51487;52.266;10.542;2023-02-07T01:17:53;-0.19;86.17
64961;SHT31;51487;52.266;10.542;2023-02-07T01:20:19;-0.19;86.59
64961;SHT31;51487;52.266;10.542;2023-02-07T01:22:44;-0.23;86.77
64961;SHT31;51487;52.266;10.542;2023-02-07T01:25:10;-0.19;86.60
64961;SHT31;51487;52.266;10.542;2023-02-07T01:27:36;-0.29;86.55
64961;SHT31;51487;52.266;10.542;2023-02-07T01:30:03;-0.33;86.50
64961;SHT31;51487;52.266;10.542;2023-02-07T01:32:32;-0.48;86.81
64961;SHT31;51487;52.266;10.542;2023-02-07T01:34:58;-0.49;87.50
64961;SHT31;51487;52.266;10.542;2023-02-07T01:37:23;-0.43;87.21
64961;SHT31;51487;52.266;10.542;2023-02-07T01:39:49;-0.54;87.06
64961;SHT31;51487;52.266;10.542;2023-02-07T01:42:16;-0.56;87.02
64961;SHT31;51487;52.266;10.542;2023-02-07T01:47:18;-0.63;86.68
64961;SHT31;51487;52.266;10.542;2023-02-07T01:49:46;-0.56;86.33
64961;SHT31;51487;52.266;10.542;2023-02-07T01:52:18;-0.70;86.63
64961;SHT31;51487;52.266;10.542;2023-02-07T01:54:49;-0.81;86.94
64961;SHT31;51487;52.266;10.542;2023-02-07T01:57:20;-0.87;87.32
64961;SHT31;51487;52.266;10.542;2023-02-07T01:59:49;-0.87;87.37
64961;SHT31;51487;52.266;10.542;2023-02-07T02:02:20;-0.90;87.43
64961;SHT31;51487;52.266;10.542;2023-02-07T02:04:46;-0.94;87.62
64961;SHT31;51487;52.266;10.542;2023-02-07T02:07:14;-0.98;87.90
64961;SHT31;51487;52.266;10.542;2023-02-07T02:09:40;-0.98;87.78
64961;SHT31;51487;52.266;10.542;2023-02-07T02:12:30;-1.05;88.24
64961;SHT31;51487;52.266;10.542;2023-02-07T02:15:30;-1.14;88.52
64961;SHT31;51487;52.266;10.542;2023-02-07T02:24:50;-1.15;88.50
64961;SHT31;51487;52.266;10.542;2023-02-07T02:28:05;-1.22;88.93
64961;SHT31;51487;52.266;10.542;2023-02-07T02:33:54;-1.21;88.74
64961;SHT31;51487;52.266;10.542;2023-02-07T02:39:17;-1.39;89.13
64961;SHT31;51487;52.266;10.542;2023-02-07T02:41:58;-1.42;89.16
64961;SHT31;51487;52.266;10.542;2023-02-07T02:44:39;-1.48;89.20
64961;SHT31;51487;52.266;10.542;2023-02-07T02:47:07;-1.39;89.18
64961;SHT31;51487;52.266;10.542;2023-02-07T02:49:35;-1.43;88.91
64961;SHT31;51487;52.266;10.542;2023-02-07T02:52:03;-1.51;89.13
64961;SHT31;51487;52.266;10.542;2023-02-07T02:54:34;-1.52;88.99
64961;SHT31;51487;52.266;10.542;2023-02-07T02:57:37;-1.55;89.23
64961;SHT31;51487;52.266;10.542;2023-02-07T03:03:42;-1.58;89.24
64961;SHT31;51487;52.266;10.542;2023-02-07T03:06:49;-1.55;88.97
64961;SHT31;51487;52.266;10.542;2023-02-07T03:12:50;-1.56;89.12
64961;SHT31;51487;52.266;10.542;2023-02-07T03:21:58;-1.56;88.56
64961;SHT31;51487;52.266;10.542;2023-02-07T03:24:33;-1.62;88.74
64961;SHT31;51487;52.266;10.542;2023-02-07T03:27:05;-1.58;88.65
64961;SHT31;51487;52.266;10.542;2023-02-07T03:29:35;-1.49;88.52
64961;SHT31;51487;52.266;10.542;2023-02-07T03:32:05;-1.58;88.50
64961;SHT31;51487;52.266;10.542;2023-02-07T03:34:52;-1.51;88.27
64961;SHT31;51487;52.266;10.542;2023-02-07T03:37:28;-1.45;88.47
64961;SHT31;51487;52.266;10.542;2023-02-07T03:39:55;-1.58;88.88
64961;SHT31;51487;52.266;10.542;2023-02-07T03:42:34;-1.48;88.90
64961;SHT31;51487;52.266;10.542;2023-02-07T03:45:01;-1.46;88.75
64961;SHT31;51487;52.266;10.542;2023-02-07T03:47:28;-1.42;89.02
64961;SHT31;51487;52.266;10.542;2023-02-07T03:49:54;-1.41;89.17
64961;SHT31;51487;52.266;10.542;2023-02-07T03:52:20;-1.53;88.93
64961;SHT31;51487;52.266;10.542;2023-02-07T03:54:46;-1.58;89.23
64961;SHT31;51487;52.266;10.542;2023-02-07T03:57:12;-1.62;89.41
64961;SHT31;51487;52.266;10.542;2023-02-07T03:59:37;-1.70;89.59
64961;SHT31;51487;52.266;10.542;2023-02-07T04:02:03;-1.69;89.90
64961;SHT31;51487;52.266;10.542;2023-02-07T04:04:29;-1.73;89.82
64961;SHT31;51487;52.266;10.542;2023-02-07T04:06:55;-1.67;89.65
64961;SHT31;51487;52.266;10.542;2023-02-07T04:09:20;-1.74;89.79
64961;SHT31;51487;52.266;10.542;2023-02-07T04:11:50;-1.79;90.24
64961;SHT31;51487;52.266;10.542;2023-02-07T04:14:17;-1.80;89.78
64961;SHT31;51487;52.266;10.542;2023-02-07T04:16:45;-1.80;90.16
64961;SHT31;51487;52.266;10.542;2023-02-07T04:19:11;-1.82;90.15
64961;SHT31;51487;52.266;10.542;2023-02-07T04:21:37;-1.80;90.17
64961;SHT31;51487;52.266;10.542;2023-02-07T04:24:02;-1.76;90.03
64961;SHT31;51487;52.266;10.542;2023-02-07T04:26:28;-1.80;90.27
64961;SHT31;51487;52.266;10.542;2023-02-07T04:28:53;-1.76;90.29
64961;SHT31;51487;52.266;10.542;2023-02-07T04:31:19;-1.66;90.10
64961;SHT31;51487;52.266;10.542;2023-02-07T04:33:44;-1.64;90.09
64961;SHT31;51487;52.266;10.542;2023-02-07T04:36:10;-1.70;90.18
64961;SHT31;51487;52.266;10.542;2023-02-07T04:38:35;-1.84;90.09
64961;SHT31;51487;52.266;10.542;2023-02-07T04:41:04;-1.82;90.42
64961;SHT31;51487;52.266;10.542;2023-02-07T04:43:32;-1.84;90.54
64961;SHT31;51487;52.266;10.542;2023-02-07T04:45:59;-1.80;90.78
64961;SHT31;51487;52.266;10.542;2023-02-07T04:48:25;-1.82;90.76
64961;SHT31;51487;52.266;10.542;2023-02-07T04:50:51;-1.87;90.63
64961;SHT31;51487;52.266;10.542;2023-02-07T04:53:16;-1.84;90.78
64961;SHT31;51487;52.266;10.542;2023-02-07T04:55:42;-1.93;91.10
64961;SHT31;51487;52.266;10.542;2023-02-07T04:58:08;-1.89;91.62
64961;SHT31;51487;52.266;10.542;2023-02-07T05:00:33;-1.74;91.66
64961;SHT31;51487;52.266;10.542;2023-02-07T05:02:59;-1.83;91.22
64961;SHT31;51487;52.266;10.542;2023-02-07T05:05:25;-1.87;91.29
64961;SHT31;51487;52.266;10.542;2023-02-07T05:07:51;-1.79;91.41
64961;SHT31;51487;52.266;10.542;2023-02-07T05:10:17;-1.73;90.97
64961;SHT31;51487;52.266;10.542;2023-02-07T05:12:42;-1.66;90.63
64961;SHT31;51487;52.266;10.542;2023-02-07T05:15:08;-1.72;90.32
64961;SHT31;51487;52.266;10.542;2023-02-07T05:17:34;-1.83;90.45
64961;SHT31;51487;52.266;10.542;2023-02-07T05:20:04;-1.83;90.89
64961;SHT31;51487;52.266;10.542;2023-02-07T05:22:30;-1.84;90.95
64961;SHT31;51487;52.266;10.542;2023-02-07T05:24:56;-1.84;91.26
64961;SHT31;51487;52.266;10.542;2023-02-07T05:27:21;-1.90;90.84
64961;SHT31;51487;52.266;10.542;2023-02-07T05:29:47;-1.93;90.92
64961;SHT31;51487;52.266;10.542;2023-02-07T05:32:14;-1.93;90.83
64961;SHT31;51487;52.266;10.542;2023-02-07T05:34:59;-1.89;90.96
64961;SHT31;51487;52.266;10.542;2023-02-07T05:37:25;-1.84;90.55
64961;SHT31;51487;52.266;10.542;2023-02-07T05:39:50;-1.84;91.00
64961;SHT31;51487;52.266;10.542;2023-02-07T05:42:16;-1.73;90.58
64961;SHT31;51487;52.266;10.542;2023-02-07T05:44:41;-1.82;90.61
64961;SHT31;51487;52.266;10.542;2023-02-07T05:47:07;-1.83;90.55
64961;SHT31;51487;52.266;10.542;2023-02-07T05:49:32;-1.89;90.49
64961;SHT31;51487;52.266;10.542;2023-02-07T05:51:58;-1.94;90.47
64961;SHT31;51487;52.266;10.542;2023-02-07T05:54:24;-2.00;90.64
64961;SHT31;51487;52.266;10.542;2023-02-07T05:56:50;-2.03;90.87
64961;SHT31;51487;52.266;10.542;2023-02-07T05:59:16;-2.08;90.76
64961;SHT31;51487;52.266;10.542;2023-02-07T06:01:41;-2.08;90.78
64961;SHT31;51487;52.266;10.542;2023-02-07T06:04:07;-2.17;91.03
64961;SHT31;51487;52.266;10.542;2023-02-07T06:06:32;-2.12;90.88
64961;SHT31;51487;52.266;10.542;2023-02-07T06:08:58;-2.10;90.89
64961;SHT31;51487;52.266;10.542;2023-02-07T06:11:23;-2.00;90.81
64961;SHT31;51487;52.266;10.542;2023-02-07T06:13:49;-2.05;90.47
64961;SHT31;51487;52.266;10.542;2023-02-07T06:16:14;-2.10;90.73
64961;SHT31;51487;52.266;10.542;2023-02-07T06:18:40;-2.10;90.36
64961;SHT31;51487;52.266;10.542;2023-02-07T06:21:05;-1.95;90.22
64961;SHT31;51487;52.266;10.542;2023-02-07T06:23:31;-1.91;89.83
64961;SHT31;51487;52.266;10.542;2023-02-07T06:25:56;-2.03;90.07
64961;SHT31;51487;52.266;10.542;2023-02-07T06:28:22;-2.17;90.41
64961;SHT31;51487;52.266;10.542;2023-02-07T06:30:50;-2.18;90.33
64961;SHT31;51487;52.266;10.542;2023-02-07T06:33:16;-2.24;90.60
64961;SHT31;51487;52.266;10.542;2023-02-07T06:35:42;-2.28;90.73
64961;SHT31;51487;52.266;10.542;2023-02-07T06:38:13;-2.32;91.03
64961;SHT31;51487;52.266;10.542;2023-02-07T06:40:40;-2.52;91.14
64961;SHT31;51487;52.266;10.542;2023-02-07T06:43:05;-2.51;91.53
64961;SHT31;51487;52.266;10.542;2023-02-07T06:45:31;-2.42;91.12
64961;SHT31;51487;52.266;10.542;2023-02-07T06:47:56;-2.44;90.87
64961;SHT31;51487;52.266;10.542;2023-02-07T06:50:22;-2.44;90.60
64961;SHT31;51487;52.266;10.542;2023-02-07T06:52:47;-2.45;90.66
64961;SHT31;51487;52.266;10.542;2023-02-07T06:55:13;-2.48;90.73
64961;SHT31;51487;52.266;10.542;2023-02-07T06:57:38;-2.44;90.73
64961;SHT31;51487;52.266;10.542;2023-02-07T07:00:05;-2.38;90.36
64961;SHT31;51487;52.266;10.542;2023-02-07T07:02:30;-2.40;90.28
64961;SHT31;51487;52.266;10.542;2023-02-07T07:04:56;-2.31;90.54
64961;SHT31;51487;52.266;10.542;2023-02-07T07:07:22;-2.27;90.63
64961;SHT31;51487;52.266;10.542;2023-02-07T07:09:47;-2.30;90.56
64961;SHT31;51487;52.266;10.542;2023-02-07T07:12:13;-2.35;90.71
64961;SHT31;51487;52.266;10.542;2023-02-07T07:14:38;-2.27;90.58
64961;SHT31;51487;52.266;10.542;2023-02-07T07:17:04;-2.30;90.54
64961;SHT31;51487;52.266;10.542;2023-02-07T07:19:30;-2.24;90.45
64961;SHT31;51487;52.266;10.542;2023-02-07T07:21:55;-2.17;90.34
64961;SHT31;51487;52.266;10.542;2023-02-07T07:24:23;-2.00;89.88
64961;SHT31;51487;52.266;10.542;2023-02-07T07:26:50;-2.08;89.66
64961;SHT31;51487;52.266;10.542;2023-02-07T07:29:17;-2.10;89.39
64961;SHT31;51487;52.266;10.542;2023-02-07T07:31:42;-2.07;89.32
64961;SHT31;51487;52.266;10.542;2023-02-07T07:34:08;-2.03;89.85
64961;SHT31;51487;52.266;10.542;2023-02-07T07:36:33;-2.00;89.36
64961;SHT31;51487;52.266;10.542;2023-02-07T07:38:59;-1.97;89.07
64961;SHT31;51487;52.266;10.542;2023-02-07T07:41:25;-2.03;89.07
64961;SHT31;51487;52.266;10.542;2023-02-07T07:43:50;-2.01;89.10
64961;SHT31;51487;52.266;10.542;2023-02-07T07:46:17;-1.94;89.09
64961;SHT31;51487;52.266;10.542;2023-02-07T07:48:42;-1.93;89.10
64961;SHT31;51487;52.266;10.542;2023-02-07T07:51:08;-1.95;88.86
64961;SHT31;51487;52.266;10.542;2023-02-07T07:53:33;-1.91;89.05
64961;SHT31;51487;52.266;10.542;2023-02-07T07:55:59;-1.77;88.46
64961;SHT31;51487;52.266;10.542;2023-02-07T07:58:25;-1.76;88.45
64961;SHT31;51487;52.266;10.542;2023-02-07T08:00:52;-1.63;87.87
64961;SHT31;51487;52.266;10.542;2023-02-07T08:03:19;-1.35;87.12
64961;SHT31;51487;52.266;10.542;2023-02-07T08:05:45;-1.30;86.37
64961;SHT31;51487;52.266;10.542;2023-02-07T08:08:13;-1.27;86.55
64961;SHT31;51487;52.266;10.542;2023-02-07T08:10:39;-1.31;86.81
64961;SHT31;51487;52.266;10.542;2023-02-07T08:13:05;-1.16;86.31
64961;SHT31;51487;52.266;10.542;2023-02-07T08:15:31;-1.15;86.19
64961;SHT31;51487;52.266;10.542;2023-02-07T08:17:57;-0.91;85.49
64961;SHT31;51487;52.266;10.542;2023-02-07T08:20:23;-0.94;85.16
64961;SHT31;51487;52.266;10.542;2023-02-07T08:22:48;-1.12;85.81
64961;SHT31;51487;52.266;10.542;2023-02-07T08:25:14;-1.05;85.79
64961;SHT31;51487;52.266;10.542;2023-02-07T08:27:40;-1.15;86.23
64961;SHT31;51487;52.266;10.542;2023-02-07T08:30:09;-1.11;86.23
64961;SHT31;51487;52.266;10.542;2023-02-07T08:32:35;-1.08;86.00
64961;SHT31;51487;52.266;10.542;2023-02-07T08:35:01;-0.88;85.83
64961;SHT31;51487;52.266;10.542;2023-02-07T08:37:26;-0.85;85.30
64961;SHT31;51487;52.266;10.542;2023-02-07T08:39:52;-0.83;85.10
64961;SHT31;51487;52.266;10.542;2023-02-07T08:42:21;-0.85;85.31
64961;SHT31;51487;52.266;10.542;2023-02-07T08:44:48;-0.87;85.73
64961;SHT31;51487;52.266;10.542;2023-02-07T08:47:16;-0.84;85.81
64961;SHT31;51487;52.266;10.542;2023-02-07T08:49:42;-0.76;85.23
64961;SHT31;51487;52.266;10.542;2023-02-07T08:52:09;-0.70;85.11
64961;SHT31;51487;52.266;10.542;2023-02-07T08:54:35;-0.72;85.26
64961;SHT31;51487;52.266;10.542;2023-02-07T08:57:01;-0.64;85.06
64961;SHT31;51487;52.266;10.542;2023-02-07T08:59:27;-0.56;85.03
64961;SHT31;51487;52.266;10.542;2023-02-07T09:01:53;-0.57;84.80
64961;SHT31;51487;52.266;10.542;2023-02-07T09:04:19;-0.48;84.78
64961;SHT31;51487;52.266;10.542;2023-02-07T09:06:45;-0.37;84.36
64961;SHT31;51487;52.266;10.542;2023-02-07T09:09:10;-0.33;84.32
64961;SHT31;51487;52.266;10.542;2023-02-07T09:11:36;-0.23;83.58
64961;SHT31;51487;52.266;10.542;2023-02-07T09:14:02;-0.26;83.77
64961;SHT31;51487;52.266;10.542;2023-02-07T09:16:28;-0.36;84.03
64961;SHT31;51487;52.266;10.542;2023-02-07T09:18:53;-0.40;83.68
64961;SHT31;51487;52.266;10.542;2023-02-07T09:21:19;-0.35;83.22
64961;SHT31;51487;52.266;10.542;2023-02-07T09:23:45;-0.32;83.56
64961;SHT31;51487;52.266;10.542;2023-02-07T09:26:17;-0.32;82.84
64961;SHT31;51487;52.266;10.542;2023-02-07T09:28:43;-0.19;82.92
64961;SHT31;51487;52.266;10.542;2023-02-07T09:31:12;-0.19;82.96
64961;SHT31;51487;52.266;10.542;2023-02-07T09:33:40;-0.01;81.95
64961;SHT31;51487;52.266;10.542;2023-02-07T09:36:20;0.02;81.89
64961;SHT31;51487;52.266;10.542;2023-02-07T09:38:46;0.13;81.84
64961;SHT31;51487;52.266;10.542;2023-02-07T09:47:16;0.05;81.62
64961;SHT31;51487;52.266;10.542;2023-02-07T09:49:53;0.05;81.62
64961;SHT31;51487;52.266;10.542;2023-02-07T09:52:28;0.09;81.27
64961;SHT31;51487;52.266;10.542;2023-02-07T09:54:57;0.15;80.43
64961;SHT31;51487;52.266;10.542;2023-02-07T09:57:30;0.22;80.50
64961;SHT31;51487;52.266;10.542;2023-02-07T10:00:14;0.22;80.50
64961;SHT31;51487;52.266;10.542;2023-02-07T10:02:57;0.40;80.24
64961;SHT31;51487;52.266;10.542;2023-02-07T10:05:41;0.35;79.56
64961;SHT31;51487;52.266;10.542;2023-02-07T10:08:13;0.43;79.42
64961;SHT31;51487;52.266;10.542;2023-02-07T10:16:44;0.46;78.89
64961;SHT31;51487;52.266;10.542;2023-02-07T10:19:37;0.56;78.69
64961;SHT31;51487;52.266;10.542;2023-02-07T10:22:25;0.58;78.36
64961;SHT31;51487;52.266;10.542;2023-02-07T10:26:03;0.70;78.25
64961;SHT31;51487;52.266;10.542;2023-02-07T10:30:51;0.81;77.09
64961;SHT31;51487;52.266;10.542;2023-02-07T10:33:28;0.80;77.10
64961;SHT31;51487;52.266;10.542;2023-02-07T10:35:55;0.77;76.60
64961;SHT31;51487;52.266;10.542;2023-02-07T10:41:14;0.81;76.73
64961;SHT31;51487;52.266;10.542;2023-02-07T10:43:44;0.88;76.43
64961;SHT31;51487;52.266;10.542;2023-02-07T10:46:15;0.95;75.61
64961;SHT31;51487;52.266;10.542;2023-02-07T10:48:45;0.96;74.51
64961;SHT31;51487;52.266;10.542;2023-02-07T10:51:38;0.99;74.21
64961;SHT31;51487;52.266;10.542;2023-02-07T10:54:11;1.09;74.19
64961;SHT31;51487;52.266;10.542;2023-02-07T10:56:49;1.09;73.73
64961;SHT31;51487;52.266;10.542;2023-02-07T10:59:41;1.08;73.53
64961;SHT31;51487;52.266;10.542;2023-02-07T11:08:20;1.25;72.39
64961;SHT31;51487;52.266;10.542;2023-02-07T11:10:49;1.29;72.71
64961;SHT31;51487;52.266;10.542;2023-02-07T11:13:46;1.14;71.55
64961;SHT31;51487;52.266;10.542;2023-02-07T11:16:16;1.29;71.20
64961;SHT31;51487;52.266;10.542;2023-02-07T11:18:55;1.28;70.86
64961;SHT31;51487;52.266;10.542;2023-02-07T11:21:45;1.39;70.43
64961;SHT31;51487;52.266;10.542;2023-02-07T11:24:26;1.47;70.32
64961;SHT31;51487;52.266;10.542;2023-02-07T11:27:14;1.47;69.67
64961;SHT31;51487;52.266;10.542;2023-02-07T11:29:53;1.52;69.65
64961;SHT31;51487;52.266;10.542;2023-02-07T11:32:21;1.66;69.50
64961;SHT31;51487;52.266;10.542;2023-02-07T11:34:56;1.68;69.32
64961;SHT31;51487;52.266;10.542;2023-02-07T11:37:29;1.68;69.29
64961;SHT31;51487;52.266;10.542;2023-02-07T11:45:42;1.93;67.27
64961;SHT31;51487;52.266;10.542;2023-02-07T11:48:18;1.88;67.60
64961;SHT31;51487;52.266;10.542;2023-02-07T11:50:51;1.88;68.53
64961;SHT31;51487;52.266;10.542;2023-02-07T11:53:40;1.85;68.96
64961;SHT31;51487;52.266;10.542;2023-02-07T11:56:24;1.95;69.13
64961;SHT31;51487;52.266;10.542;2023-02-07T11:58:52;2.10;68.82
64961;SHT31;51487;52.266;10.542;2023-02-07T12:01:29;2.20;67.85
64961;SHT31;51487;52.266;10.542;2023-02-07T12:04:02;2.25;67.68
64961;SHT31;51487;52.266;10.542;2023-02-07T12:06:47;2.22;68.38
64961;SHT31;51487;52.266;10.542;2023-02-07T12:09:51;2.17;68.36
64961;SHT31;51487;52.266;10.542;2023-02-07T12:12:44;2.15;68.87
64961;SHT31;51487;52.266;10.542;2023-02-07T12:15:23;2.11;69.33
64961;SHT31;51487;52.266;10.542;2023-02-07T12:23:23;2.25;71.01
64961;SHT31;51487;52.266;10.542;2023-02-07T12:40:49;2.43;72.94
64961;SHT31;51487;52.266;10.542;2023-02-07T12:43:32;2.49;73.05
64961;SHT31;51487;52.266;10.542;2023-02-07T12:54:53;2.72;71.86
64961;SHT31;51487;52.266;10.542;2023-02-07T13:00:51;2.76;71.32
64961;SHT31;51487;52.266;10.542;2023-02-07T13:03:56;2.77;71.17
64961;SHT31;51487;52.266;10.542;2023-02-07T13:06:51;2.79;71.58
64961;SHT31;51487;52.266;10.542;2023-02-07T13:09:28;2.72;71.81
64961;SHT31;51487;52.266;10.542;2023-02-07T13:12:18;2.79;71.68
64961;SHT31;51487;52.266;10.542;2023-02-07T13:23:37;2.97;70.19
64961;SHT31;51487;52.266;10.542;2023-02-07T13:26:16;2.97;69.98
64961;SHT31;51487;52.266;10.542;2023-02-07T13:31:29;3.05;70.58
64961;SHT31;51487;52.266;10.542;2023-02-07T13:33:56;3.00;70.26
64961;SHT31;51487;52.266;10.542;2023-02-07T13:36:43;3.05;70.15
64961;SHT31;51487;52.266;10.542;2023-02-07T13:42:48;3.04;70.95
64961;SHT31;51487;52.266;10.542;2023-02-07T13:45:44;3.13;70.64
64961;SHT31;51487;52.266;10.542;2023-02-07T13:48:15;3.14;70.74
64961;SHT31;51487;52.266;10.542;2023-02-07T13:57:37;3.20;72.52
64961;SHT31;51487;52.266;10.542;2023-02-07T14:00:25;3.15;73.14
64961;SHT31;51487;52.266;10.542;2023-02-07T14:02:56;3.11;73.07
64961;SHT31;51487;52.266;10.542;2023-02-07T14:08:02;3.17;73.01
64961;SHT31;51487;52.266;10.542;2023-02-07T14:10:55;3.11;73.55
64961;SHT31;51487;52.266;10.542;2023-02-07T14:13:33;3.08;73.74
64961;SHT31;51487;52.266;10.542;2023-02-07T14:16:09;3.01;73.88
64961;SHT31;51487;52.266;10.542;2023-02-07T14:18:47;3.00;74.06
64961;SHT31;51487;52.266;10.542;2023-02-07T14:31:59;2.75;72.32
64961;SHT31;51487;52.266;10.542;2023-02-07T14:34:35;2.77;71.86
64961;SHT31;51487;52.266;10.542;2023-02-07T14:37:28;2.76;72.15
64961;SHT31;51487;52.266;10.542;2023-02-07T14:45:29;2.69;70.77
64961;SHT31;51487;52.266;10.542;2023-02-07T14:47:55;2.59;69.39
64961;SHT31;51487;52.266;10.542;2023-02-07T14:50:25;2.57;65.65
64961;SHT31;51487;52.266;10.542;2023-02-07T14:52:57;2.56;65.68
64961;SHT31;51487;52.266;10.542;2023-02-07T14:55:40;2.55;65.32
64961;SHT31;51487;52.266;10.542;2023-02-07T14:58:39;2.56;66.76
64961;SHT31;51487;52.266;10.542;2023-02-07T15:01:15;2.60;67.55
64961;SHT31;51487;52.266;10.542;2023-02-07T15:03:42;2.43;68.08
64961;SHT31;51487;52.266;10.542;2023-02-07T15:06:20;2.35;68.89
64961;SHT31;51487;52.266;10.542;2023-02-07T15:08:59;2.28;69.25
64961;SHT31;51487;52.266;10.542;2023-02-07T15:11:26;2.21;68.51
64961;SHT31;51487;52.266;10.542;2023-02-07T15:14:01;2.17;69.91
64961;SHT31;51487;52.266;10.542;2023-02-07T15:16:32;2.10;73.77
64961;SHT31;51487;52.266;10.542;2023-02-07T15:19:16;2.08;75.73
64961;SHT31;51487;52.266;10.542;2023-02-07T15:21:45;2.08;76.29
64961;SHT31;51487;52.266;10.542;2023-02-07T15:27:01;2.00;78.37
64961;SHT31;51487;52.266;10.542;2023-02-07T15:29:34;1.97;78.81
64961;SHT31;51487;52.266;10.542;2023-02-07T15:32:20;1.77;79.54
64961;SHT31;51487;52.266;10.542;2023-02-07T15:34:47;1.76;80.08
64961;SHT31;51487;52.266;10.542;2023-02-07T15:37:19;1.66;80.83
64961;SHT31;51487;52.266;10.542;2023-02-07T15:39:45;1.54;81.58
64961;SHT31;51487;52.266;10.542;2023-02-07T15:42:16;1.60;81.70
64961;SHT31;51487;52.266;10.542;2023-02-07T15:44:54;1.42;82.26
64961;SHT31;51487;52.266;10.542;2023-02-07T15:47:34;1.26;82.91
64961;SHT31;51487;52.266;10.542;2023-02-07T15:52:49;1.19;83.20
64961;SHT31;51487;52.266;10.542;2023-02-07T15:57:48;1.04;84.22
64961;SHT31;51487;52.266;10.542;2023-02-07T16:00:22;0.99;84.50
64961;SHT31;51487;52.266;10.542;2023-02-07T16:02:59;1.05;84.37
64961;SHT31;51487;52.266;10.542;2023-02-07T16:05:32;0.98;84.74
64961;SHT31;51487;52.266;10.542;2023-02-07T16:10:50;0.95;84.86
64961;SHT31;51487;52.266;10.542;2023-02-07T16:13:21;0.91;85.21
64961;SHT31;51487;52.266;10.542;2023-02-07T16:16:06;0.95;84.99
64961;SHT31;51487;52.266;10.542;2023-02-07T16:18:44;0.88;85.22
64961;SHT31;51487;52.266;10.542;2023-02-07T16:21:23;0.85;85.10
64961;SHT31;51487;52.266;10.542;2023-02-07T16:24:03;0.89;84.79
64961;SHT31;51487;52.266;10.542;2023-02-07T16:26:29;0.83;84.57
64961;SHT31;51487;52.266;10.542;2023-02-07T16:28:55;0.92;84.03
64961;SHT31;51487;52.266;10.542;2023-02-07T16:31:20;0.87;83.49
64961;SHT31;51487;52.266;10.542;2023-02-07T16:33:46;0.74;83.80
64961;SHT31;51487;52.266;10.542;2023-02-07T16:36:16;0.67;83.60
64961;SHT31;51487;52.266;10.542;2023-02-07T16:38:42;0.63;83.45
64961;SHT31;51487;52.266;10.542;2023-02-07T16:41:30;0.61;82.41
64961;SHT31;51487;52.266;10.542;2023-02-07T16:43:59;0.53;81.93
64961;SHT31;51487;52.266;10.542;2023-02-07T16:46:25;0.58;81.17
64961;SHT31;51487;52.266;10.542;2023-02-07T16:48:51;0.54;80.81
64961;SHT31;51487;52.266;10.542;2023-02-07T16:51:16;0.46;80.06
64961;SHT31;51487;52.266;10.542;2023-02-07T16:53:42;0.52;79.87
64961;SHT31;51487;52.266;10.542;2023-02-07T16:56:15;0.52;79.91
64961;SHT31;51487;52.266;10.542;2023-02-07T16:58:41;0.43;79.62
64961;SHT31;51487;52.266;10.542;2023-02-07T17:01:16;0.35;79.97
64961;SHT31;51487;52.266;10.542;2023-02-07T17:03:41;0.42;80.14
64961;SHT31;51487;52.266;10.542;2023-02-07T17:06:14;0.36;79.93
64961;SHT31;51487;52.266;10.542;2023-02-07T17:08:40;0.37;79.63
64961;SHT31;51487;52.266;10.542;2023-02-07T17:11:11;0.27;80.19
64961;SHT31;51487;52.266;10.542;2023-02-07T17:13:37;0.27;80.51
64961;SHT31;51487;52.266;10.542;2023-02-07T17:16:02;0.12;81.31
64961;SHT31;51487;52.266;10.542;2023-02-07T17:18:28;-0.05;82.40
64961;SHT31;51487;52.266;10.542;2023-02-07T17:20:53;-0.02;82.59
64961;SHT31;51487;52.266;10.542;2023-02-07T17:23:19;-0.09;83.26
64961;SHT31;51487;52.266;10.542;2023-02-07T17:25:46;-0.09;83.76
64961;SHT31;51487;52.266;10.542;2023-02-07T17:28:13;-0.11;84.51
64961;SHT31;51487;52.266;10.542;2023-02-07T17:30:42;-0.11;84.31
64961;SHT31;51487;52.266;10.542;2023-02-07T17:33:09;-0.06;84.63
64961;SHT31;51487;52.266;10.542;2023-02-07T17:35:36;-0.05;84.85
64961;SHT31;51487;52.266;10.542;2023-02-07T17:38:03;-0.08;85.13
64961;SHT31;51487;52.266;10.542;2023-02-07T17:40:38;-0.09;85.38
64961;SHT31;51487;52.266;10.542;2023-02-07T17:43:05;-0.19;85.87
64961;SHT31;51487;52.266;10.542;2023-02-07T17:45:34;-0.19;85.94
64961;SHT31;51487;52.266;10.542;2023-02-07T17:48:01;-0.26;86.22
64961;SHT31;51487;52.266;10.542;2023-02-07T17:50:35;-0.36;86.68
64961;SHT31;51487;52.266;10.542;2023-02-07T17:53:02;-0.22;86.57
64961;SHT31;51487;52.266;10.542;2023-02-07T17:55:30;-0.30;86.78
64961;SHT31;51487;52.266;10.542;2023-02-07T17:57:56;-0.22;86.92
64961;SHT31;51487;52.266;10.542;2023-02-07T18:00:29;-0.35;87.27
64961;SHT31;51487;52.266;10.542;2023-02-07T18:02:56;-0.39;87.34
64961;SHT31;51487;52.266;10.542;2023-02-07T18:05:22;-0.46;87.42
64961;SHT31;51487;52.266;10.542;2023-02-07T18:07:49;-0.42;87.74